Airfield :
LOGIN :

Register | Disclaimer

   EN    FR    IT 

 










Legend :    VFR   Marginal VFR   IFR   Intensive IFR   Very Intensive IFR
Visi :
Ceiling :
>= 8 km
>= 3000ft
5 to 8 km
1000 to 3000 ft
1500m to 5 km
500 to 1000 ft
800 to 1500m
200 to 500 ft
< 800m
< 200 ft
Symbols :   Thunderstorms  Fog  Heavy snow  Heavy precipitations  Wind > 20 kt
SIGMETs :     Misc.  Thunderstorms  Icing  Turbulence  Mountain Waves  Volcanic Ashes







- Airport Elevation : 53 ft
- IATA code : HRT


EGXU - RAF Linton-on-Ouse

CURRENT METAR :
  • 221550Z 20025G37KT 9999 -RA OVC035 15/11 Q0983 BLU NOSIG

EXPIRED METARs :
  • 221450Z 20024G34KT 9999 BKN032 OVC040 15/10 Q0984 BLU NOSIG
  • 221350Z 20023G33KT 9999 BKN036 OVC050 15/10 Q0984 BLU NOSIG

TAF TAF EGXU
Valid from the 22 at 15:00 until the 22 at 19:00 UTC


221336Z 2215/2219 19020G30KT 9999 FEW009 BKN025
TEMPO 2215/2219 4000 -RADZ SCT015
PROB30
TEMPO 2215/2219 19025G40KT
No reported NOTAMs for that airfield.
3 SIGMETs reported for the London FIR (EGTT) :
 
Severe icing
EGTT SIGMET 08 VALID 221502/221700 EGRR
EGTT LONDON FIR SEV ICE FCST WI N5441 W00420 - N5444 W00518 - N5500 W00508 - N5500 W00409 - N5441 W00420 FL220/280 STNR WKN=
Severe mountain waves
EGTT SIGMET 07 VALID 221400/221800 EGRR
EGTT LONDON FIR SEV MTW FCST WI N5412 E00110 - N5047 W00255 - N5045 W00430 - N5500 W00415 - N5500 W00100 - N5500 E00045 - N5412 E00110 FL020/180 STNR NC=
Severe turbulence
EGTT SIGMET 06 VALID 221400/221800 EGRR
EGTT LONDON FIR SEV TURB FCST WI N5245 E00255 - N5251 W00042 - N4954 W00233 - N4857 W00727 - N5500 W00300 - N5500 E00500 - N5245 E00255 SFC/FL060 MOV E 30KT INTSF=



MET'MAP, your aeronautical weather chart ! - Copyright ORBIFLY December 2007 - Disclaimer

ORBIFLY MET'MAP TEAM :

Programming & Development : Alexandra Zaïnal
Concept & Development : Baudouin d'Aumeries
Co-Development & Prog : Marc-Olivier Méhu
Technical & hardware support : Manuel Goepfert

Contact : metmap@orbifly.com




SOURCES & CREDITS :

   NOAA